sensor_id;sensor_type;location;lat;lon;timestamp;temperature;humidity
516;DHT22;244;48.508;9.052;2023-01-25T00:00:22;5.30;21.30
516;DHT22;244;48.508;9.052;2023-01-25T00:02:49;5.30;21.90
516;DHT22;244;48.508;9.052;2023-01-25T00:05:16;5.40;21.30
516;DHT22;244;48.508;9.052;2023-01-25T00:07:43;5.40;21.30
516;DHT22;244;48.508;9.052;2023-01-25T00:10:10;5.40;22.00
516;DHT22;244;48.508;9.052;2023-01-25T00:12:38;5.40;21.30
516;DHT22;244;48.508;9.052;2023-01-25T00:15:06;5.40;21.30
516;DHT22;244;48.508;9.052;2023-01-25T00:17:33;5.40;21.30
516;DHT22;244;48.508;9.052;2023-01-25T00:20:00;5.40;21.40
516;DHT22;244;48.508;9.052;2023-01-25T00:22:27;5.40;21.30
516;DHT22;244;48.508;9.052;2023-01-25T00:24:54;5.40;21.30
516;DHT22;244;48.508;9.052;2023-01-25T00:27:20;5.40;21.40
516;DHT22;244;48.508;9.052;2023-01-25T00:29:49;5.40;21.30
516;DHT22;244;48.508;9.052;2023-01-25T00:32:39;5.40;21.30
516;DHT22;244;48.508;9.052;2023-01-25T00:35:10;5.30;21.30
516;DHT22;244;48.508;9.052;2023-01-25T00:37:39;5.40;21.30
516;DHT22;244;48.508;9.052;2023-01-25T00:40:09;5.40;21.30
516;DHT22;244;48.508;9.052;2023-01-25T00:42:37;5.40;21.30
516;DHT22;244;48.508;9.052;2023-01-25T00:45:06;5.40;21.30
516;DHT22;244;48.508;9.052;2023-01-25T00:47:33;5.40;21.40
516;DHT22;244;48.508;9.052;2023-01-25T00:50:00;5.40;21.30
516;DHT22;244;48.508;9.052;2023-01-25T00:52:27;5.40;21.30
516;DHT22;244;48.508;9.052;2023-01-25T00:54:54;5.40;21.40
516;DHT22;244;48.508;9.052;2023-01-25T00:57:21;5.40;21.40
516;DHT22;244;48.508;9.052;2023-01-25T00:59:48;5.40;21.30
516;DHT22;244;48.508;9.052;2023-01-25T01:02:16;5.30;21.30
516;DHT22;244;48.508;9.052;2023-01-25T01:04:43;5.30;21.30
516;DHT22;244;48.508;9.052;2023-01-25T01:07:11;5.30;21.30
516;DHT22;244;48.508;9.052;2023-01-25T01:09:39;5.30;21.90
516;DHT22;244;48.508;9.052;2023-01-25T01:12:05;5.30;21.30
516;DHT22;244;48.508;9.052;2023-01-25T01:14:33;5.30;21.30
516;DHT22;244;48.508;9.052;2023-01-25T01:16:59;5.30;21.30
516;DHT22;244;48.508;9.052;2023-01-25T01:19:28;5.40;21.40
516;DHT22;244;48.508;9.052;2023-01-25T01:21:55;5.40;21.40
516;DHT22;244;48.508;9.052;2023-01-25T01:24:22;5.40;21.30
516;DHT22;244;48.508;9.052;2023-01-25T01:26:49;5.40;21.30
516;DHT22;244;48.508;9.052;2023-01-25T01:29:15;5.40;21.30
516;DHT22;244;48.508;9.052;2023-01-25T01:31:42;5.40;22.00
516;DHT22;244;48.508;9.052;2023-01-25T01:34:11;5.50;21.40
516;DHT22;244;48.508;9.052;2023-01-25T01:36:40;5.50;21.20
516;DHT22;244;48.508;9.052;2023-01-25T01:39:07;5.50;21.20
516;DHT22;244;48.508;9.052;2023-01-25T01:41:34;5.50;21.20
516;DHT22;244;48.508;9.052;2023-01-25T01:44:01;5.40;21.10
516;DHT22;244;48.508;9.052;2023-01-25T01:46:32;5.40;21.00
516;DHT22;244;48.508;9.052;2023-01-25T01:49:05;5.50;21.10
516;DHT22;244;48.508;9.052;2023-01-25T01:51:41;5.50;21.10
516;DHT22;244;48.508;9.052;2023-01-25T01:54:11;5.40;21.10
516;DHT22;244;48.508;9.052;2023-01-25T01:56:45;5.50;21.10
516;DHT22;244;48.508;9.052;2023-01-25T01:59:13;5.40;20.90
516;DHT22;244;48.508;9.052;2023-01-25T02:01:40;5.40;20.90
516;DHT22;244;48.508;9.052;2023-01-25T02:04:09;5.40;21.00
516;DHT22;244;48.508;9.052;2023-01-25T02:06:43;5.40;21.00
516;DHT22;244;48.508;9.052;2023-01-25T02:09:12;5.40;20.90
516;DHT22;244;48.508;9.052;2023-01-25T02:11:40;5.40;21.00
516;DHT22;244;48.508;9.052;2023-01-25T02:14:07;5.40;21.00
516;DHT22;244;48.508;9.052;2023-01-25T02:16:34;5.40;21.00
516;DHT22;244;48.508;9.052;2023-01-25T02:19:01;5.40;20.90
516;DHT22;244;48.508;9.052;2023-01-25T02:21:32;5.40;20.90
516;DHT22;244;48.508;9.052;2023-01-25T02:24:08;5.40;21.50
516;DHT22;244;48.508;9.052;2023-01-25T02:26:36;5.40;21.00
516;DHT22;244;48.508;9.052;2023-01-25T02:29:05;5.40;21.00
516;DHT22;244;48.508;9.052;2023-01-25T02:31:33;5.40;20.90
516;DHT22;244;48.508;9.052;2023-01-25T02:34:00;5.40;20.90
516;DHT22;244;48.508;9.052;2023-01-25T02:36:29;5.40;20.90
516;DHT22;244;48.508;9.052;2023-01-25T02:38:58;5.40;21.00
516;DHT22;244;48.508;9.052;2023-01-25T02:41:30;5.30;20.90
516;DHT22;244;48.508;9.052;2023-01-25T02:43:59;5.30;21.00
516;DHT22;244;48.508;9.052;2023-01-25T02:46:29;5.40;21.10
516;DHT22;244;48.508;9.052;2023-01-25T02:48:57;5.30;21.00
516;DHT22;244;48.508;9.052;2023-01-25T02:51:27;5.40;20.90
516;DHT22;244;48.508;9.052;2023-01-25T02:53:54;5.40;21.50
516;DHT22;244;48.508;9.052;2023-01-25T02:56:22;5.40;21.00
516;DHT22;244;48.508;9.052;2023-01-25T02:58:49;5.40;21.00
516;DHT22;244;48.508;9.052;2023-01-25T03:01:18;5.40;20.90
516;DHT22;244;48.508;9.052;2023-01-25T03:03:44;5.40;20.90
516;DHT22;244;48.508;9.052;2023-01-25T03:06:11;5.40;20.90
516;DHT22;244;48.508;9.052;2023-01-25T03:08:38;5.40;20.90
516;DHT22;244;48.508;9.052;2023-01-25T03:11:06;5.40;20.90
516;DHT22;244;48.508;9.052;2023-01-25T03:13:34;5.40;20.90
516;DHT22;244;48.508;9.052;2023-01-25T03:16:02;5.40;21.40
516;DHT22;244;48.508;9.052;2023-01-25T03:18:31;5.40;20.80
516;DHT22;244;48.508;9.052;2023-01-25T03:21:04;5.40;20.80
516;DHT22;244;48.508;9.052;2023-01-25T03:23:31;5.40;20.70
516;DHT22;244;48.508;9.052;2023-01-25T03:26:07;5.40;20.80
516;DHT22;244;48.508;9.052;2023-01-25T03:28:35;5.40;20.80
516;DHT22;244;48.508;9.052;2023-01-25T03:31:02;5.40;20.80
516;DHT22;244;48.508;9.052;2023-01-25T03:33:30;5.40;21.40
516;DHT22;244;48.508;9.052;2023-01-25T03:35:58;5.40;21.50
516;DHT22;244;48.508;9.052;2023-01-25T03:38:25;5.40;20.90
516;DHT22;244;48.508;9.052;2023-01-25T03:40:52;5.40;21.30
516;DHT22;244;48.508;9.052;2023-01-25T03:43:19;5.40;20.70
516;DHT22;244;48.508;9.052;2023-01-25T03:45:51;5.40;20.80
516;DHT22;244;48.508;9.052;2023-01-25T03:48:18;5.50;20.80
516;DHT22;244;48.508;9.052;2023-01-25T03:50:49;5.50;20.70
516;DHT22;244;48.508;9.052;2023-01-25T03:53:17;5.40;20.50
516;DHT22;244;48.508;9.052;2023-01-25T03:55:52;5.40;20.50
516;DHT22;244;48.508;9.052;2023-01-25T03:58:20;5.40;20.50
516;DHT22;244;48.508;9.052;2023-01-25T04:00:47;5.40;20.50
516;DHT22;244;48.508;9.052;2023-01-25T04:03:14;5.30;20.40
516;DHT22;244;48.508;9.052;2023-01-25T04:05:42;5.40;20.60
516;DHT22;244;48.508;9.052;2023-01-25T04:08:10;5.30;20.60
516;DHT22;244;48.508;9.052;2023-01-25T04:10:37;5.30;20.60
516;DHT22;244;48.508;9.052;2023-01-25T04:13:04;5.30;20.60
516;DHT22;244;48.508;9.052;2023-01-25T04:15:30;5.30;20.60
516;DHT22;244;48.508;9.052;2023-01-25T04:17:57;5.30;20.60
516;DHT22;244;48.508;9.052;2023-01-25T04:20:24;5.30;20.60
516;DHT22;244;48.508;9.052;2023-01-25T04:22:51;5.30;20.70
516;DHT22;244;48.508;9.052;2023-01-25T04:25:19;5.30;20.70
516;DHT22;244;48.508;9.052;2023-01-25T04:27:46;5.30;20.70
516;DHT22;244;48.508;9.052;2023-01-25T04:30:13;5.30;20.70
516;DHT22;244;48.508;9.052;2023-01-25T04:32:40;5.30;20.80
516;DHT22;244;48.508;9.052;2023-01-25T04:35:08;5.30;20.80
516;DHT22;244;48.508;9.052;2023-01-25T04:37:34;5.30;20.80
516;DHT22;244;48.508;9.052;2023-01-25T04:40:01;5.30;20.80
516;DHT22;244;48.508;9.052;2023-01-25T04:42:30;5.30;20.70
516;DHT22;244;48.508;9.052;2023-01-25T04:44:56;5.30;20.70
516;DHT22;244;48.508;9.052;2023-01-25T04:47:23;5.30;20.70
516;DHT22;244;48.508;9.052;2023-01-25T04:49:50;5.30;20.70
516;DHT22;244;48.508;9.052;2023-01-25T04:52:17;5.30;20.60
516;DHT22;244;48.508;9.052;2023-01-25T04:54:44;5.30;20.60
516;DHT22;244;48.508;9.052;2023-01-25T04:57:11;5.30;20.70
516;DHT22;244;48.508;9.052;2023-01-25T04:59:39;5.30;20.70
516;DHT22;244;48.508;9.052;2023-01-25T05:02:06;5.40;20.70
516;DHT22;244;48.508;9.052;2023-01-25T05:04:33;5.40;20.70
516;DHT22;244;48.508;9.052;2023-01-25T05:07:00;5.40;20.60
516;DHT22;244;48.508;9.052;2023-01-25T05:09:26;5.40;20.60
516;DHT22;244;48.508;9.052;2023-01-25T05:11:53;5.40;20.60
516;DHT22;244;48.508;9.052;2023-01-25T05:14:20;5.50;20.60
516;DHT22;244;48.508;9.052;2023-01-25T05:16:48;5.50;20.60
516;DHT22;244;48.508;9.052;2023-01-25T05:19:15;5.50;20.60
516;DHT22;244;48.508;9.052;2023-01-25T05:21:42;5.50;20.50
516;DHT22;244;48.508;9.052;2023-01-25T05:24:24;5.50;20.40
516;DHT22;244;48.508;9.052;2023-01-25T05:26:51;5.50;21.00
516;DHT22;244;48.508;9.052;2023-01-25T05:29:28;5.50;20.30
516;DHT22;244;48.508;9.052;2023-01-25T05:31:57;5.50;20.30
516;DHT22;244;48.508;9.052;2023-01-25T05:34:24;5.50;20.20
516;DHT22;244;48.508;9.052;2023-01-25T05:36:52;5.50;20.20
516;DHT22;244;48.508;9.052;2023-01-25T05:39:19;5.50;20.30
516;DHT22;244;48.508;9.052;2023-01-25T05:41:46;5.50;20.20
516;DHT22;244;48.508;9.052;2023-01-25T05:44:13;5.50;20.80
516;DHT22;244;48.508;9.052;2023-01-25T05:46:40;5.50;20.10
516;DHT22;244;48.508;9.052;2023-01-25T05:49:08;5.50;20.80
516;DHT22;244;48.508;9.052;2023-01-25T05:51:35;5.50;20.10
516;DHT22;244;48.508;9.052;2023-01-25T05:54:03;5.50;20.10
516;DHT22;244;48.508;9.052;2023-01-25T05:56:31;5.40;20.00
516;DHT22;244;48.508;9.052;2023-01-25T05:58:59;5.40;20.60
516;DHT22;244;48.508;9.052;2023-01-25T06:01:27;5.40;20.10
516;DHT22;244;48.508;9.052;2023-01-25T06:03:54;5.40;20.10
516;DHT22;244;48.508;9.052;2023-01-25T06:06:23;5.40;20.10
516;DHT22;244;48.508;9.052;2023-01-25T06:08:50;5.40;20.00
516;DHT22;244;48.508;9.052;2023-01-25T06:11:18;5.30;20.00
516;DHT22;244;48.508;9.052;2023-01-25T06:13:46;5.30;20.10
516;DHT22;244;48.508;9.052;2023-01-25T06:16:13;5.30;20.10
516;DHT22;244;48.508;9.052;2023-01-25T06:18:40;5.30;20.10
516;DHT22;244;48.508;9.052;2023-01-25T06:21:08;5.30;20.00
516;DHT22;244;48.508;9.052;2023-01-25T06:23:36;5.30;20.60
516;DHT22;244;48.508;9.052;2023-01-25T06:26:05;5.30;19.90
516;DHT22;244;48.508;9.052;2023-01-25T06:28:32;5.30;20.00
516;DHT22;244;48.508;9.052;2023-01-25T06:31:04;5.30;20.00
516;DHT22;244;48.508;9.052;2023-01-25T06:33:31;5.20;19.80
516;DHT22;244;48.508;9.052;2023-01-25T06:35:59;5.30;19.90
516;DHT22;244;48.508;9.052;2023-01-25T06:38:26;5.20;19.80
516;DHT22;244;48.508;9.052;2023-01-25T06:40:58;5.20;19.80
516;DHT22;244;48.508;9.052;2023-01-25T06:43:25;5.30;20.00
516;DHT22;244;48.508;9.052;2023-01-25T06:45:56;5.30;19.80
516;DHT22;244;48.508;9.052;2023-01-25T06:48:23;5.30;19.60
516;DHT22;244;48.508;9.052;2023-01-25T06:50:55;5.20;19.40
516;DHT22;244;48.508;9.052;2023-01-25T06:53:25;5.20;19.40
516;DHT22;244;48.508;9.052;2023-01-25T06:56:01;5.20;19.40
516;DHT22;244;48.508;9.052;2023-01-25T06:58:28;5.20;19.40
516;DHT22;244;48.508;9.052;2023-01-25T07:01:00;5.20;19.50
516;DHT22;244;48.508;9.052;2023-01-25T07:03:27;5.20;20.10
516;DHT22;244;48.508;9.052;2023-01-25T07:05:57;5.20;19.50
516;DHT22;244;48.508;9.052;2023-01-25T07:08:24;5.20;20.00
516;DHT22;244;48.508;9.052;2023-01-25T07:10:55;5.20;19.40
516;DHT22;244;48.508;9.052;2023-01-25T07:13:24;5.20;19.40
516;DHT22;244;48.508;9.052;2023-01-25T07:15:53;5.20;19.40
516;DHT22;244;48.508;9.052;2023-01-25T07:18:20;5.20;19.40
516;DHT22;244;48.508;9.052;2023-01-25T07:20:47;5.20;19.40
516;DHT22;244;48.508;9.052;2023-01-25T07:23:14;5.20;19.50
516;DHT22;244;48.508;9.052;2023-01-25T07:25:43;5.20;19.60
516;DHT22;244;48.508;9.052;2023-01-25T07:28:10;5.30;20.30
516;DHT22;244;48.508;9.052;2023-01-25T07:30:39;5.30;19.60
516;DHT22;244;48.508;9.052;2023-01-25T07:33:06;5.30;19.50
516;DHT22;244;48.508;9.052;2023-01-25T07:35:32;5.30;19.50
516;DHT22;244;48.508;9.052;2023-01-25T07:37:59;5.30;19.40
516;DHT22;244;48.508;9.052;2023-01-25T07:40:26;5.30;19.40
516;DHT22;244;48.508;9.052;2023-01-25T07:42:53;5.30;19.30
516;DHT22;244;48.508;9.052;2023-01-25T07:45:20;5.30;19.30
516;DHT22;244;48.508;9.052;2023-01-25T07:47:55;5.40;19.30
516;DHT22;244;48.508;9.052;2023-01-25T07:50:21;5.40;19.30
516;DHT22;244;48.508;9.052;2023-01-25T07:52:48;5.40;19.30
516;DHT22;244;48.508;9.052;2023-01-25T07:55:15;5.40;19.20
516;DHT22;244;48.508;9.052;2023-01-25T07:57:42;5.50;19.30
516;DHT22;244;48.508;9.052;2023-01-25T08:00:10;5.50;19.10
516;DHT22;244;48.508;9.052;2023-01-25T08:02:38;5.50;19.00
516;DHT22;244;48.508;9.052;2023-01-25T08:05:07;5.60;19.00
516;DHT22;244;48.508;9.052;2023-01-25T08:07:34;5.60;18.90
516;DHT22;244;48.508;9.052;2023-01-25T08:10:01;5.60;18.70
516;DHT22;244;48.508;9.052;2023-01-25T08:12:28;5.60;18.50
516;DHT22;244;48.508;9.052;2023-01-25T08:14:55;5.60;18.50
516;DHT22;244;48.508;9.052;2023-01-25T08:17:22;5.60;18.50
516;DHT22;244;48.508;9.052;2023-01-25T08:19:49;5.60;18.40
516;DHT22;244;48.508;9.052;2023-01-25T08:22:17;5.60;18.40
516;DHT22;244;48.508;9.052;2023-01-25T08:24:44;5.60;18.40
516;DHT22;244;48.508;9.052;2023-01-25T08:27:11;5.60;18.30
516;DHT22;244;48.508;9.052;2023-01-25T08:29:37;5.60;18.30
516;DHT22;244;48.508;9.052;2023-01-25T08:32:04;5.60;18.20
516;DHT22;244;48.508;9.052;2023-01-25T08:34:32;5.70;18.20
516;DHT22;244;48.508;9.052;2023-01-25T08:36:59;5.70;18.10
516;DHT22;244;48.508;9.052;2023-01-25T08:39:28;5.70;17.80
516;DHT22;244;48.508;9.052;2023-01-25T08:41:55;5.70;17.70
516;DHT22;244;48.508;9.052;2023-01-25T08:44:22;5.70;17.60
516;DHT22;244;48.508;9.052;2023-01-25T08:46:50;5.70;17.40
516;DHT22;244;48.508;9.052;2023-01-25T08:49:17;5.70;17.30
516;DHT22;244;48.508;9.052;2023-01-25T08:51:44;5.70;17.30
516;DHT22;244;48.508;9.052;2023-01-25T08:54:15;5.70;17.40
516;DHT22;244;48.508;9.052;2023-01-25T08:56:44;5.70;17.50
516;DHT22;244;48.508;9.052;2023-01-25T08:59:11;5.70;17.30
516;DHT22;244;48.508;9.052;2023-01-25T09:01:38;5.80;17.30
516;DHT22;244;48.508;9.052;2023-01-25T09:04:05;5.80;17.30
516;DHT22;244;48.508;9.052;2023-01-25T09:06:32;5.80;17.30
516;DHT22;244;48.508;9.052;2023-01-25T09:08:59;5.90;17.30
516;DHT22;244;48.508;9.052;2023-01-25T09:11:26;5.90;17.20
516;DHT22;244;48.508;9.052;2023-01-25T09:13:54;6.00;17.30
516;DHT22;244;48.508;9.052;2023-01-25T09:16:23;6.00;17.20
516;DHT22;244;48.508;9.052;2023-01-25T09:18:54;6.10;17.10
516;DHT22;244;48.508;9.052;2023-01-25T09:21:22;6.10;16.90
516;DHT22;244;48.508;9.052;2023-01-25T09:23:50;6.10;16.80
516;DHT22;244;48.508;9.052;2023-01-25T09:26:18;6.00;16.70
516;DHT22;244;48.508;9.052;2023-01-25T09:28:46;6.00;16.60
516;DHT22;244;48.508;9.052;2023-01-25T09:31:16;6.00;16.60
516;DHT22;244;48.508;9.052;2023-01-25T09:33:43;6.00;16.60
516;DHT22;244;48.508;9.052;2023-01-25T09:36:10;6.00;16.50
516;DHT22;244;48.508;9.052;2023-01-25T09:38:37;5.90;16.30
516;DHT22;244;48.508;9.052;2023-01-25T09:41:13;5.90;16.30
516;DHT22;244;48.508;9.052;2023-01-25T09:43:55;5.90;16.30
516;DHT22;244;48.508;9.052;2023-01-25T09:46:32;5.90;16.30
516;DHT22;244;48.508;9.052;2023-01-25T09:49:20;5.90;16.30
516;DHT22;244;48.508;9.052;2023-01-25T09:52:02;5.90;16.20
516;DHT22;244;48.508;9.052;2023-01-25T09:54:36;5.90;16.20
516;DHT22;244;48.508;9.052;2023-01-25T09:57:09;5.90;16.10
516;DHT22;244;48.508;9.052;2023-01-25T09:59:39;5.90;16.10
516;DHT22;244;48.508;9.052;2023-01-25T10:02:18;6.00;16.20
516;DHT22;244;48.508;9.052;2023-01-25T10:04:52;6.00;16.20
516;DHT22;244;48.508;9.052;2023-01-25T10:07:24;6.00;16.10
516;DHT22;244;48.508;9.052;2023-01-25T10:09:59;6.10;16.10
516;DHT22;244;48.508;9.052;2023-01-25T10:12:32;6.10;16.00
516;DHT22;244;48.508;9.052;2023-01-25T10:15:01;6.10;15.90
516;DHT22;244;48.508;9.052;2023-01-25T10:17:35;6.10;15.90
516;DHT22;244;48.508;9.052;2023-01-25T10:20:12;6.20;15.90
516;DHT22;244;48.508;9.052;2023-01-25T10:22:45;6.20;15.80
516;DHT22;244;48.508;9.052;2023-01-25T10:25:34;6.30;15.60
516;DHT22;244;48.508;9.052;2023-01-25T10:28:19;6.30;15.60
516;DHT22;244;48.508;9.052;2023-01-25T10:30:52;6.20;15.40
516;DHT22;244;48.508;9.052;2023-01-25T10:33:22;6.20;15.20
516;DHT22;244;48.508;9.052;2023-01-25T10:35:49;6.20;15.20
516;DHT22;244;48.508;9.052;2023-01-25T10:38:20;6.10;15.10
516;DHT22;244;48.508;9.052;2023-01-25T10:40:53;6.10;15.20
516;DHT22;244;48.508;9.052;2023-01-25T10:43:21;6.10;15.90
516;DHT22;244;48.508;9.052;2023-01-25T10:45:49;6.00;15.30
516;DHT22;244;48.508;9.052;2023-01-25T10:48:18;6.00;15.40
516;DHT22;244;48.508;9.052;2023-01-25T10:50:50;6.00;15.50
516;DHT22;244;48.508;9.052;2023-01-25T10:53:29;6.00;15.60
516;DHT22;244;48.508;9.052;2023-01-25T10:56:11;6.00;15.60
516;DHT22;244;48.508;9.052;2023-01-25T10:58:43;6.00;15.60
516;DHT22;244;48.508;9.052;2023-01-25T11:01:13;6.10;15.60
516;DHT22;244;48.508;9.052;2023-01-25T11:03:49;6.10;15.50
516;DHT22;244;48.508;9.052;2023-01-25T11:06:29;6.00;15.40
516;DHT22;244;48.508;9.052;2023-01-25T11:08:56;6.00;15.40
516;DHT22;244;48.508;9.052;2023-01-25T11:11:25;6.00;15.40
516;DHT22;244;48.508;9.052;2023-01-25T11:13:53;6.00;15.40
516;DHT22;244;48.508;9.052;2023-01-25T11:16:29;6.00;15.40
516;DHT22;244;48.508;9.052;2023-01-25T11:18:58;5.90;15.40
516;DHT22;244;48.508;9.052;2023-01-25T11:21:29;5.90;15.40
516;DHT22;244;48.508;9.052;2023-01-25T11:24:02;5.80;15.30
516;DHT22;244;48.508;9.052;2023-01-25T11:26:30;5.80;15.40
516;DHT22;244;48.508;9.052;2023-01-25T11:29:12;5.70;15.50
516;DHT22;244;48.508;9.052;2023-01-25T11:31:40;5.60;16.10
516;DHT22;244;48.508;9.052;2023-01-25T11:34:11;5.60;15.60
516;DHT22;244;48.508;9.052;2023-01-25T11:36:59;5.60;15.70
516;DHT22;244;48.508;9.052;2023-01-25T11:39:41;5.60;15.80
516;DHT22;244;48.508;9.052;2023-01-25T11:42:24;5.50;15.80
516;DHT22;244;48.508;9.052;2023-01-25T11:48:11;5.60;16.10
516;DHT22;244;48.508;9.052;2023-01-25T11:50:46;5.70;16.10
516;DHT22;244;48.508;9.052;2023-01-25T11:53:28;5.70;16.00
516;DHT22;244;48.508;9.052;2023-01-25T11:56:04;5.70;16.00
516;DHT22;244;48.508;9.052;2023-01-25T11:58:47;5.80;16.00
516;DHT22;244;48.508;9.052;2023-01-25T12:01:20;5.80;15.90
516;DHT22;244;48.508;9.052;2023-01-25T12:04:30;5.70;15.80
516;DHT22;244;48.508;9.052;2023-01-25T12:07:02;5.70;15.90
516;DHT22;244;48.508;9.052;2023-01-25T12:09:51;5.70;15.90
516;DHT22;244;48.508;9.052;2023-01-25T12:12:32;5.70;15.90
516;DHT22;244;48.508;9.052;2023-01-25T12:15:10;5.70;15.90
516;DHT22;244;48.508;9.052;2023-01-25T12:17:54;5.60;15.90
516;DHT22;244;48.508;9.052;2023-01-25T12:20:41;5.60;16.00
516;DHT22;244;48.508;9.052;2023-01-25T12:23:25;5.60;16.10
516;DHT22;244;48.508;9.052;2023-01-25T12:26:04;5.60;16.10
516;DHT22;244;48.508;9.052;2023-01-25T12:28:35;5.50;16.10
516;DHT22;244;48.508;9.052;2023-01-25T12:31:08;5.50;16.20
516;DHT22;244;48.508;9.052;2023-01-25T12:33:40;5.40;16.20
516;DHT22;244;48.508;9.052;2023-01-25T12:36:12;5.40;16.30
516;DHT22;244;48.508;9.052;2023-01-25T12:38:43;5.30;16.40
516;DHT22;244;48.508;9.052;2023-01-25T12:41:23;5.30;17.10
516;DHT22;244;48.508;9.052;2023-01-25T12:43:53;5.20;16.50
516;DHT22;244;48.508;9.052;2023-01-25T12:46:26;5.20;16.60
516;DHT22;244;48.508;9.052;2023-01-25T12:48:56;5.20;16.60
516;DHT22;244;48.508;9.052;2023-01-25T12:51:33;5.30;16.70
516;DHT22;244;48.508;9.052;2023-01-25T12:54:06;5.30;16.70
516;DHT22;244;48.508;9.052;2023-01-25T12:56:40;5.30;16.70
516;DHT22;244;48.508;9.052;2023-01-25T12:59:17;5.40;16.80
516;DHT22;244;48.508;9.052;2023-01-25T13:01:52;5.40;16.80
516;DHT22;244;48.508;9.052;2023-01-25T13:04:43;5.50;16.80
516;DHT22;244;48.508;9.052;2023-01-25T13:07:18;5.60;16.70
516;DHT22;244;48.508;9.052;2023-01-25T13:09:52;5.60;16.50
516;DHT22;244;48.508;9.052;2023-01-25T13:12:24;5.70;16.50
516;DHT22;244;48.508;9.052;2023-01-25T13:14:51;5.70;16.60
516;DHT22;244;48.508;9.052;2023-01-25T13:17:21;5.70;16.40
516;DHT22;244;48.508;9.052;2023-01-25T13:19:49;5.70;16.30
516;DHT22;244;48.508;9.052;2023-01-25T13:25:20;5.70;16.20
516;DHT22;244;48.508;9.052;2023-01-25T13:27:49;5.60;16.10
516;DHT22;244;48.508;9.052;2023-01-25T13:30:30;5.60;16.20
516;DHT22;244;48.508;9.052;2023-01-25T13:33:00;5.60;16.20
516;DHT22;244;48.508;9.052;2023-01-25T13:35:32;5.60;16.20
516;DHT22;244;48.508;9.052;2023-01-25T13:38:02;5.60;16.20
516;DHT22;244;48.508;9.052;2023-01-25T13:40:32;5.60;16.20
516;DHT22;244;48.508;9.052;2023-01-25T13:43:04;5.60;16.20
516;DHT22;244;48.508;9.052;2023-01-25T13:45:33;5.70;16.20
516;DHT22;244;48.508;9.052;2023-01-25T13:48:05;5.70;16.10
516;DHT22;244;48.508;9.052;2023-01-25T13:50:41;5.70;16.00
516;DHT22;244;48.508;9.052;2023-01-25T13:53:18;5.60;16.00
516;DHT22;244;48.508;9.052;2023-01-25T13:55:47;5.60;16.00
516;DHT22;244;48.508;9.052;2023-01-25T13:58:19;5.50;16.00
516;DHT22;244;48.508;9.052;2023-01-25T14:00:48;5.50;16.60
516;DHT22;244;48.508;9.052;2023-01-25T14:03:15;5.50;16.00
516;DHT22;244;48.508;9.052;2023-01-25T14:05:48;5.50;16.70
516;DHT22;244;48.508;9.052;2023-01-25T14:08:17;5.50;16.10
516;DHT22;244;48.508;9.052;2023-01-25T14:10:44;5.50;16.00
516;DHT22;244;48.508;9.052;2023-01-25T14:13:13;5.40;16.00
516;DHT22;244;48.508;9.052;2023-01-25T14:15:51;5.40;16.80
516;DHT22;244;48.508;9.052;2023-01-25T14:18:18;5.40;16.20
516;DHT22;244;48.508;9.052;2023-01-25T14:20:46;5.50;16.30
516;DHT22;244;48.508;9.052;2023-01-25T14:23:21;5.50;16.30
516;DHT22;244;48.508;9.052;2023-01-25T14:25:48;5.50;16.30
516;DHT22;244;48.508;9.052;2023-01-25T14:28:16;5.50;16.20
516;DHT22;244;48.508;9.052;2023-01-25T14:30:49;5.50;16.20
516;DHT22;244;48.508;9.052;2023-01-25T14:33:18;5.50;16.20
516;DHT22;244;48.508;9.052;2023-01-25T14:35:47;5.50;16.10
516;DHT22;244;48.508;9.052;2023-01-25T14:38:22;5.50;16.10
516;DHT22;244;48.508;9.052;2023-01-25T14:40:52;5.40;16.10
516;DHT22;244;48.508;9.052;2023-01-25T14:43:20;5.50;16.20
516;DHT22;244;48.508;9.052;2023-01-25T14:45:49;5.40;16.10
516;DHT22;244;48.508;9.052;2023-01-25T14:48:36;5.40;16.80
516;DHT22;244;48.508;9.052;2023-01-25T14:51:10;5.30;16.20
516;DHT22;244;48.508;9.052;2023-01-25T14:53:39;5.30;16.30
516;DHT22;244;48.508;9.052;2023-01-25T14:56:23;5.30;16.30
516;DHT22;244;48.508;9.052;2023-01-25T14:58:50;5.20;16.90
516;DHT22;244;48.508;9.052;2023-01-25T15:01:27;5.20;16.30
516;DHT22;244;48.508;9.052;2023-01-25T15:03:55;5.30;16.50
516;DHT22;244;48.508;9.052;2023-01-25T15:06:22;5.30;16.50
516;DHT22;244;48.508;9.052;2023-01-25T15:08:49;5.20;16.50
516;DHT22;244;48.508;9.052;2023-01-25T15:11:30;5.20;16.50
516;DHT22;244;48.508;9.052;2023-01-25T15:14:03;5.10;16.50
516;DHT22;244;48.508;9.052;2023-01-25T15:16:38;5.10;16.50
516;DHT22;244;48.508;9.052;2023-01-25T15:19:23;5.10;16.70
516;DHT22;244;48.508;9.052;2023-01-25T15:21:50;5.10;16.70
516;DHT22;244;48.508;9.052;2023-01-25T15:24:19;5.10;16.70
516;DHT22;244;48.508;9.052;2023-01-25T15:26:49;5.00;16.80
516;DHT22;244;48.508;9.052;2023-01-25T15:29:18;5.00;16.80
516;DHT22;244;48.508;9.052;2023-01-25T15:31:49;5.00;16.80
516;DHT22;244;48.508;9.052;2023-01-25T15:34:18;5.00;16.80
516;DHT22;244;48.508;9.052;2023-01-25T15:36:46;5.00;16.80
516;DHT22;244;48.508;9.052;2023-01-25T15:39:14;5.00;16.80
516;DHT22;244;48.508;9.052;2023-01-25T15:41:42;5.00;16.80
516;DHT22;244;48.508;9.052;2023-01-25T15:44:09;4.90;16.80
516;DHT22;244;48.508;9.052;2023-01-25T15:46:38;4.90;16.80
516;DHT22;244;48.508;9.052;2023-01-25T15:49:09;4.90;17.40
516;DHT22;244;48.508;9.052;2023-01-25T15:51:38;4.90;16.80
516;DHT22;244;48.508;9.052;2023-01-25T15:54:05;4.90;16.80
516;DHT22;244;48.508;9.052;2023-01-25T15:56:33;4.90;16.80
516;DHT22;244;48.508;9.052;2023-01-25T15:59:06;5.00;16.80
516;DHT22;244;48.508;9.052;2023-01-25T16:01:33;5.00;16.80
516;DHT22;244;48.508;9.052;2023-01-25T16:04:00;5.00;16.80
516;DHT22;244;48.508;9.052;2023-01-25T16:06:32;5.00;16.80
516;DHT22;244;48.508;9.052;2023-01-25T16:09:02;5.10;16.90
516;DHT22;244;48.508;9.052;2023-01-25T16:11:34;5.10;16.90
516;DHT22;244;48.508;9.052;2023-01-25T16:14:01;5.10;16.90
516;DHT22;244;48.508;9.052;2023-01-25T16:16:28;5.10;16.90
516;DHT22;244;48.508;9.052;2023-01-25T16:18:55;5.10;16.90
516;DHT22;244;48.508;9.052;2023-01-25T16:21:23;5.10;16.90
516;DHT22;244;48.508;9.052;2023-01-25T16:23:51;5.10;16.80
516;DHT22;244;48.508;9.052;2023-01-25T16:26:20;5.10;16.70
516;DHT22;244;48.508;9.052;2023-01-25T16:28:47;5.10;16.70
516;DHT22;244;48.508;9.052;2023-01-25T16:31:15;5.10;16.70
516;DHT22;244;48.508;9.052;2023-01-25T16:33:42;5.20;16.70
516;DHT22;244;48.508;9.052;2023-01-25T16:36:14;5.20;16.80
516;DHT22;244;48.508;9.052;2023-01-25T16:38:41;5.20;16.80
516;DHT22;244;48.508;9.052;2023-01-25T16:41:09;5.20;16.80
516;DHT22;244;48.508;9.052;2023-01-25T16:43:39;5.20;16.70
516;DHT22;244;48.508;9.052;2023-01-25T16:46:11;5.20;16.70
516;DHT22;244;48.508;9.052;2023-01-25T16:48:39;5.20;16.70
516;DHT22;244;48.508;9.052;2023-01-25T16:51:15;5.30;16.70
516;DHT22;244;48.508;9.052;2023-01-25T16:53:44;5.30;16.70
516;DHT22;244;48.508;9.052;2023-01-25T16:56:17;5.30;16.70
516;DHT22;244;48.508;9.052;2023-01-25T16:58:45;5.30;17.30
516;DHT22;244;48.508;9.052;2023-01-25T17:01:13;5.30;16.60
516;DHT22;244;48.508;9.052;2023-01-25T17:03:41;5.30;16.60
516;DHT22;244;48.508;9.052;2023-01-25T17:06:17;5.30;16.70
516;DHT22;244;48.508;9.052;2023-01-25T17:08:45;5.30;16.70
516;DHT22;244;48.508;9.052;2023-01-25T17:11:12;5.30;16.70
516;DHT22;244;48.508;9.052;2023-01-25T17:13:40;5.40;16.80
516;DHT22;244;48.508;9.052;2023-01-25T17:16:07;5.40;16.70